CheckWX is a tool to help pilots better visualize weather data.  It is not intended as a substitute for an official pre-flight weather briefing.

20:43:52 UTC

40J METAR
Perry-Foley Airport
Perry, Florida, USA
Current

29 mins ago

K40J 182015Z AUTO 03009KT 10SM OVC014 21/16 A3012 RMK AO2 T02060163
Observed
Feb-18 @ 20:15 UTC
Wind
  • 030° at 9 KTS
Visibility
10 SM
Flight Rules
MVFR
Cloud Levels
  • Overcast at 1,400' AGL
Temperature
21°C / 70°F
Dewpoint
16°C / 61°F
Humidity
73%
Altimeter
30.12" Hg
Pressure
1020.02 hPa
Previous

1 hour ago

K40J 181935Z AUTO 36008KT 10SM OVC012 21/16 A3011 RMK AO2 T02110164
Observed
Feb-18 @ 19:35 UTC
Wind
  • 360° at 8 KTS
Visibility
10 SM
Flight Rules
MVFR
Cloud Levels
  • Overcast at 1,200' AGL
Temperature
21°C / 70°F
Dewpoint
16°C / 61°F
Humidity
73%
Altimeter
30.11" Hg
Pressure
1019.62 hPa
Previous

1 hour ago

K40J 181915Z AUTO 01008KT 10SM OVC012 21/17 A3012 RMK AO2 T02070165
Observed
Feb-18 @ 19:15 UTC
Wind
  • 010° at 8 KTS
Visibility
10 SM
Flight Rules
MVFR
Cloud Levels
  • Overcast at 1,200' AGL
Temperature
21°C / 70°F
Dewpoint
17°C / 63°F
Humidity
78%
Altimeter
30.12" Hg
Pressure
1020.02 hPa